createdAt,value
2022-08-23T00:02:23.847Z,60.50
2022-08-23T00:05:08.254Z,59.83
2022-08-23T00:07:39.360Z,59.41
2022-08-23T00:10:08.745Z,60.13
2022-08-23T00:12:35.195Z,60.53
2022-08-23T00:15:01.659Z,60.43
2022-08-23T00:17:34.441Z,60.91
2022-08-23T00:20:03.373Z,60.47
2022-08-23T00:22:29.844Z,60.67
2022-08-23T00:24:56.682Z,61.35
2022-08-23T00:27:23.122Z,61.25
2022-08-23T00:29:53.102Z,61.10
2022-08-23T00:32:26.281Z,61.57
2022-08-23T00:34:52.931Z,61.63
2022-08-23T00:37:21.089Z,61.54
2022-08-23T00:39:47.581Z,61.03
2022-08-23T00:42:56.505Z,61.37
2022-08-23T00:45:49.481Z,61.77
2022-08-23T00:48:16.289Z,62.32
2022-08-23T00:51:14.527Z,62.82
2022-08-23T00:53:46.372Z,63.00
2022-08-23T00:56:17.756Z,62.89
2022-08-23T00:58:46.241Z,62.65
2022-08-23T01:01:14.629Z,62.65
2022-08-23T01:03:49.571Z,63.27
2022-08-23T01:06:30.940Z,63.50
2022-08-23T01:09:02.001Z,62.64
2022-08-23T01:11:35.208Z,62.60
2022-08-23T01:14:13.408Z,63.54
2022-08-23T01:16:45.478Z,63.54
2022-08-23T01:19:21.019Z,63.94
2022-08-23T01:21:57.531Z,64.12
2022-08-23T01:25:06.582Z,64.79
2022-08-23T01:27:12.678Z,64.97
2022-08-23T01:29:40.558Z,65.43
2022-08-23T01:32:09.068Z,64.43
2022-08-23T01:34:36.773Z,64.76
2022-08-23T01:37:11.445Z,64.98
2022-08-23T01:39:37.986Z,65.31
2022-08-23T01:42:07.716Z,64.74
2022-08-23T01:44:35.141Z,64.40
2022-08-23T01:47:01.583Z,64.81
2022-08-23T01:49:28.051Z,64.31
2022-08-23T01:51:55.462Z,65.15
2022-08-23T01:54:22.436Z,65.92
2022-08-23T01:56:49.176Z,65.55
2022-08-23T01:59:15.579Z,65.10
2022-08-23T02:01:42.205Z,65.27
2022-08-23T02:04:08.866Z,65.01
2022-08-23T02:06:35.476Z,65.65
2022-08-23T02:09:03.604Z,64.57
2022-08-23T02:11:33.799Z,65.02
2022-08-23T02:14:03.037Z,65.19
2022-08-23T02:16:36.140Z,65.12
2022-08-23T02:19:06.515Z,64.87
2022-08-23T02:21:35.040Z,65.49
2022-08-23T02:24:11.037Z,65.98
2022-08-23T02:26:40.635Z,66.35
2022-08-23T02:29:14.644Z,66.75
2022-08-23T02:31:41.550Z,66.62
2022-08-23T02:34:08.026Z,66.56
2022-08-23T02:36:34.798Z,66.81
2022-08-23T02:39:01.296Z,66.85
2022-08-23T02:41:27.946Z,67.53
2022-08-23T02:43:54.528Z,67.57
2022-08-23T02:46:22.986Z,66.45
2022-08-23T02:48:49.836Z,67.74
2022-08-23T02:51:16.899Z,69.06
2022-08-23T02:53:43.345Z,68.32
2022-08-23T02:56:17.027Z,68.74
2022-08-23T02:58:54.600Z,67.73
2022-08-23T03:01:30.564Z,68.05
2022-08-23T03:03:58.687Z,68.18
2022-08-23T03:06:26.502Z,67.65
2022-08-23T03:08:54.661Z,67.62
2022-08-23T03:11:21.905Z,68.72
2022-08-23T03:13:49.542Z,69.16
2022-08-23T03:16:16.921Z,69.96
2022-08-23T03:18:43.495Z,70.19
2022-08-23T03:21:10.915Z,70.14
2022-08-23T03:23:39.279Z,70.40
2022-08-23T03:26:08.244Z,70.41
2022-08-23T03:28:36.447Z,70.92
2022-08-23T03:31:03.211Z,70.92
2022-08-23T03:33:29.990Z,71.01
2022-08-23T03:36:04.699Z,71.11
2022-08-23T03:38:31.177Z,71.71
2022-08-23T03:40:58.369Z,71.66
2022-08-23T03:43:24.953Z,71.08
2022-08-23T03:45:51.489Z,71.99
2022-08-23T03:48:18.010Z,71.70
2022-08-23T03:50:45.077Z,71.81
2022-08-23T03:53:12.982Z,72.46
2022-08-23T03:55:42.307Z,72.05
2022-08-23T03:58:10.266Z,72.65
2022-08-23T04:00:37.402Z,72.42
2022-08-23T04:03:04.045Z,72.49
2022-08-23T04:05:30.482Z,72.87
2022-08-23T04:07:57.018Z,73.11
2022-08-23T04:10:23.826Z,74.18
2022-08-23T04:12:50.339Z,74.13
2022-08-23T04:15:18.556Z,73.94
2022-08-23T04:17:45.006Z,73.92
2022-08-23T04:20:11.944Z,74.28
2022-08-23T04:22:38.805Z,74.25
2022-08-23T04:25:05.649Z,74.47
2022-08-23T04:27:52.077Z,74.65
2022-08-23T04:30:20.425Z,72.96
2022-08-23T04:32:47.656Z,74.70
2022-08-23T04:35:15.113Z,74.46
2022-08-23T04:37:41.626Z,74.79
2022-08-23T04:40:27.313Z,74.37
2022-08-23T04:42:53.794Z,75.19
2022-08-23T04:45:20.591Z,75.67
2022-08-23T04:47:47.039Z,75.76
2022-08-23T04:50:13.663Z,75.73
2022-08-23T04:52:40.334Z,75.58
2022-08-23T04:55:07.156Z,75.92
2022-08-23T04:57:33.577Z,75.75
2022-08-23T05:00:00.575Z,75.82
2022-08-23T05:02:27.692Z,75.77
2022-08-23T05:04:54.072Z,76.31
2022-08-23T05:07:21.169Z,75.59
2022-08-23T05:10:12.724Z,76.48
2022-08-23T05:12:39.786Z,76.02
2022-08-23T05:15:07.931Z,75.00
2022-08-23T05:17:34.456Z,73.74
2022-08-23T05:20:01.574Z,72.50
2022-08-23T05:22:28.732Z,70.44
2022-08-23T05:24:55.212Z,68.79
2022-08-23T05:27:21.624Z,68.25
2022-08-23T05:29:48.437Z,67.35
2022-08-23T05:32:14.846Z,65.89
2022-08-23T05:34:42.074Z,64.40
2022-08-23T05:37:08.488Z,64.08
2022-08-23T05:39:36.287Z,63.21
2022-08-23T05:42:03.602Z,62.26
2022-08-23T05:44:30.330Z,62.03
2022-08-23T05:47:02.754Z,62.12
2022-08-23T05:49:29.472Z,61.84
2022-08-23T05:51:56.698Z,61.47
2022-08-23T05:54:23.207Z,60.86
2022-08-23T05:56:49.630Z,61.76
2022-08-23T05:59:16.995Z,60.78
2022-08-23T06:01:43.927Z,60.68
2022-08-23T06:04:12.423Z,59.41
2022-08-23T06:06:40.352Z,59.82
2022-08-23T06:09:08.864Z,59.62
2022-08-23T06:11:36.411Z,60.10
2022-08-23T06:14:05.601Z,60.04
2022-08-23T06:16:35.522Z,60.60
2022-08-23T06:19:03.198Z,60.41
2022-08-23T06:21:31.242Z,60.68
2022-08-23T06:24:00.422Z,60.34
2022-08-23T06:26:33.086Z,60.74
2022-08-23T06:29:05.950Z,60.41
2022-08-23T06:31:45.355Z,60.21
2022-08-23T06:34:24.398Z,59.94
2022-08-23T06:36:53.682Z,59.96
2022-08-23T06:39:22.616Z,59.83
2022-08-23T06:41:49.250Z,60.04
2022-08-23T06:44:16.865Z,60.24
2022-08-23T06:46:43.394Z,59.78
2022-08-23T06:49:10.303Z,59.41
2022-08-23T06:51:46.138Z,59.84
2022-08-23T06:54:14.595Z,59.73
2022-08-23T06:56:44.450Z,59.09
2022-08-23T06:59:12.055Z,58.66
2022-08-23T07:01:59.010Z,57.54
2022-08-23T07:04:34.771Z,57.00
2022-08-23T07:07:02.257Z,57.48
2022-08-23T07:09:29.903Z,57.49
2022-08-23T07:11:56.504Z,57.81
2022-08-23T07:14:24.179Z,56.64
2022-08-23T07:16:58.089Z,57.21
2022-08-23T07:19:29.200Z,57.11
2022-08-23T07:21:57.279Z,56.40
2022-08-23T07:24:23.846Z,57.36
2022-08-23T07:26:52.105Z,57.44
2022-08-23T07:29:20.381Z,56.22
2022-08-23T07:31:53.078Z,56.38
2022-08-23T07:34:20.856Z,55.55
2022-08-23T07:36:48.774Z,54.96
2022-08-23T07:39:16.385Z,54.86
2022-08-23T07:41:43.867Z,55.05
2022-08-23T07:44:12.688Z,53.66
2022-08-23T07:46:44.433Z,54.01
2022-08-23T07:49:12.103Z,54.70
2022-08-23T07:51:40.681Z,53.90
2022-08-23T07:54:10.103Z,53.08
2022-08-23T07:56:37.277Z,53.13
2022-08-23T07:59:04.584Z,52.99
2022-08-23T08:01:31.049Z,51.87
2022-08-23T08:04:00.736Z,52.82
2022-08-23T08:06:34.188Z,53.33
2022-08-23T08:09:00.766Z,52.32
2022-08-23T08:11:34.452Z,51.81
2022-08-23T08:14:05.950Z,51.71
2022-08-23T08:16:44.490Z,51.20
2022-08-23T08:19:15.178Z,51.73
2022-08-23T08:21:44.047Z,51.89
2022-08-23T08:24:12.966Z,50.58
2022-08-23T08:26:40.635Z,50.27
2022-08-23T08:29:07.432Z,49.70
2022-08-23T08:31:36.254Z,49.81
2022-08-23T08:34:02.706Z,49.44
2022-08-23T08:36:37.932Z,49.34
2022-08-23T08:39:06.964Z,49.20
2022-08-23T08:41:54.723Z,48.86
2022-08-23T08:44:51.585Z,49.64
2022-08-23T08:47:45.621Z,49.26
2022-08-23T08:50:19.647Z,49.41
2022-08-23T08:52:51.556Z,48.41
2022-08-23T08:55:26.258Z,48.20
2022-08-23T08:57:55.114Z,47.43
2022-08-23T09:00:29.045Z,46.50
2022-08-23T09:02:58.228Z,44.92
2022-08-23T09:05:39.636Z,45.16
2022-08-23T09:08:21.017Z,45.90
2022-08-23T09:10:59.695Z,45.25
2022-08-23T09:13:55.340Z,45.90
2022-08-23T09:16:39.753Z,45.79
2022-08-23T09:19:06.910Z,44.17
2022-08-23T09:21:42.505Z,44.25
2022-08-23T09:24:09.031Z,44.44
2022-08-23T09:26:36.607Z,44.48
2022-08-23T09:29:20.738Z,45.01
2022-08-23T09:31:52.400Z,43.97
2022-08-23T09:34:42.676Z,43.94
2022-08-23T09:37:19.230Z,43.21
2022-08-23T09:39:49.631Z,42.24
2022-08-23T09:42:36.971Z,41.88
2022-08-23T09:45:28.105Z,41.17
2022-08-23T09:47:55.443Z,40.65
2022-08-23T09:50:27.238Z,41.93
2022-08-23T09:53:04.816Z,42.69
2022-08-23T09:55:33.703Z,42.09
2022-08-23T09:58:03.505Z,41.63
2022-08-23T10:00:34.188Z,42.56
2022-08-23T10:03:27.390Z,41.66
2022-08-23T10:05:56.980Z,41.09
2022-08-23T10:08:32.853Z,40.87
2022-08-23T10:11:03.328Z,41.08
2022-08-23T10:13:31.358Z,40.92
2022-08-23T10:16:31.815Z,40.74
2022-08-23T10:19:23.662Z,41.20
2022-08-23T10:22:15.618Z,40.22
2022-08-23T10:24:58.647Z,39.69
2022-08-23T10:27:50.161Z,39.76
2022-08-23T10:30:23.589Z,38.56
2022-08-23T10:33:23.861Z,39.12
2022-08-23T10:35:58.632Z,39.25
2022-08-23T10:38:41.015Z,37.90
2022-08-23T10:41:13.655Z,37.16
2022-08-23T10:43:55.265Z,38.25
2022-08-23T10:46:22.827Z,37.28
2022-08-23T10:48:57.891Z,37.14
2022-08-23T10:51:31.557Z,37.87
2022-08-23T10:54:08.814Z,37.71
2022-08-23T10:56:36.007Z,37.92
2022-08-23T10:59:14.247Z,37.75
2022-08-23T11:01:49.932Z,37.28
2022-08-23T11:04:55.378Z,36.94
2022-08-23T11:07:28.434Z,36.52
2022-08-23T11:09:58.288Z,36.53
2022-08-23T11:12:28.359Z,36.48
2022-08-23T11:15:07.826Z,35.95
2022-08-23T11:17:52.795Z,35.71
2022-08-23T11:20:50.295Z,35.26
2022-08-23T11:23:36.143Z,34.89
2022-08-23T11:26:07.133Z,34.09
2022-08-23T11:28:46.477Z,33.86
2022-08-23T11:31:23.724Z,33.47
2022-08-23T11:34:11.519Z,34.44
2022-08-23T11:36:39.059Z,34.35
2022-08-23T11:39:09.926Z,33.88
2022-08-23T11:41:54.379Z,33.71
2022-08-23T11:44:35.494Z,33.96
2022-08-23T11:47:06.600Z,33.37
2022-08-23T11:49:56.271Z,33.12
2022-08-23T11:52:25.446Z,33.50
2022-08-23T11:55:17.639Z,33.77
2022-08-23T11:58:11.859Z,33.83
2022-08-23T12:00:55.158Z,33.86
2022-08-23T12:03:33.908Z,33.63
2022-08-23T12:06:09.000Z,33.39
2022-08-23T12:09:03.184Z,33.25
2022-08-23T12:11:57.536Z,33.89
2022-08-23T12:14:42.678Z,33.89
2022-08-23T12:17:12.113Z,33.61
2022-08-23T12:20:16.624Z,34.06
2022-08-23T12:23:08.035Z,34.16
2022-08-23T12:25:37.396Z,33.99
2022-08-23T12:28:12.544Z,33.80
2022-08-23T12:30:58.402Z,33.51
2022-08-23T12:33:45.882Z,32.98
2022-08-23T12:36:22.784Z,32.77
2022-08-23T12:38:55.114Z,33.00
2022-08-23T12:41:33.247Z,33.92
2022-08-23T12:44:09.096Z,33.32
2022-08-23T12:46:42.305Z,33.36
2022-08-23T12:49:21.833Z,33.32
2022-08-23T12:51:50.480Z,33.48
2022-08-23T12:54:19.999Z,32.70
2022-08-23T12:56:49.997Z,32.67
2022-08-23T12:59:39.696Z,32.60
2022-08-23T13:02:12.234Z,33.73
2022-08-23T13:04:40.493Z,33.43
2022-08-23T13:07:12.752Z,33.81
2022-08-23T13:09:42.265Z,33.34
2022-08-23T13:12:13.030Z,33.26
2022-08-23T13:14:45.098Z,32.88
2022-08-23T13:17:26.526Z,32.83
2022-08-23T13:20:02.052Z,32.50
2022-08-23T13:22:31.044Z,32.76
2022-08-23T13:25:31.388Z,32.66
2022-08-23T13:28:08.562Z,32.02
2022-08-23T13:30:37.924Z,31.75
2022-08-23T13:33:07.816Z,31.45
2022-08-23T13:35:43.471Z,31.81
2022-08-23T13:38:10.962Z,31.79
2022-08-23T13:40:56.148Z,31.60
2022-08-23T13:43:45.355Z,31.47
2022-08-23T13:46:26.603Z,31.02
2022-08-23T13:49:17.353Z,31.47
2022-08-23T13:52:38.059Z,32.21
2022-08-23T13:54:54.693Z,31.78
2022-08-23T13:57:22.360Z,31.52
2022-08-23T13:59:52.667Z,31.42
2022-08-23T14:02:21.347Z,31.58
2022-08-23T14:04:47.887Z,30.84
2022-08-23T14:07:15.182Z,30.74
2022-08-23T14:09:42.587Z,31.67
2022-08-23T14:12:14.883Z,31.99
2022-08-23T14:14:42.238Z,31.33
2022-08-23T14:17:12.951Z,31.75
2022-08-23T14:22:33.151Z,31.25
2022-08-23T14:24:59.645Z,31.16
2022-08-23T14:27:26.557Z,31.26
2022-08-23T14:29:52.975Z,31.14
2022-08-23T14:32:19.373Z,31.01
2022-08-23T14:34:45.776Z,30.38
2022-08-23T14:39:58.696Z,30.91
2022-08-23T14:42:25.422Z,31.25
2022-08-23T14:44:51.869Z,30.54
2022-08-23T14:47:18.830Z,30.89
2022-08-23T14:49:45.636Z,30.51
2022-08-23T14:52:13.775Z,30.82
2022-08-23T14:54:40.238Z,30.76
2022-08-23T14:57:06.806Z,30.62
2022-08-23T14:59:33.320Z,30.96
2022-08-23T15:02:00.073Z,30.66
2022-08-23T15:04:32.371Z,30.82
2022-08-23T15:07:17.339Z,30.93
2022-08-23T15:09:49.413Z,30.83
2022-08-23T15:15:07.562Z,30.57
2022-08-23T15:17:39.162Z,30.42
2022-08-23T15:20:06.129Z,30.53
2022-08-23T15:22:32.705Z,30.77
2022-08-23T15:25:06.771Z,30.56
2022-08-23T15:27:33.241Z,30.62
2022-08-23T15:30:00.492Z,31.10
2022-08-23T15:32:26.954Z,31.14
2022-08-23T15:34:54.559Z,30.61
2022-08-23T15:37:21.686Z,30.54
2022-08-23T15:39:49.091Z,30.97
2022-08-23T15:42:20.318Z,31.01
2022-08-23T15:44:47.704Z,31.34
2022-08-23T15:47:21.805Z,31.58
2022-08-23T15:49:48.758Z,31.56
2022-08-23T15:52:15.576Z,31.20
2022-08-23T15:54:42.488Z,30.87
2022-08-23T15:57:15.139Z,30.76
2022-08-23T15:59:41.873Z,30.83
2022-08-23T16:02:08.312Z,30.88
2022-08-23T16:04:35.894Z,31.52
2022-08-23T16:07:08.708Z,31.00
2022-08-23T16:09:36.002Z,31.07
2022-08-23T16:12:03.982Z,31.08
2022-08-23T16:14:32.344Z,31.05
2022-08-23T16:17:00.366Z,31.32
2022-08-23T16:19:27.820Z,30.99
2022-08-23T16:21:55.370Z,31.07
2022-08-23T16:24:24.659Z,31.04
2022-08-23T16:26:52.177Z,30.94
2022-08-23T16:29:20.046Z,31.37
2022-08-23T16:31:47.528Z,31.64
2022-08-23T16:34:18.312Z,31.15
2022-08-23T16:36:47.899Z,31.35
2022-08-23T16:39:16.699Z,31.41
2022-08-23T16:41:43.195Z,31.42
2022-08-23T16:44:09.678Z,32.14
2022-08-23T16:46:36.866Z,31.55
2022-08-23T16:49:03.788Z,31.88
2022-08-23T16:51:30.239Z,32.02
2022-08-23T16:54:02.494Z,32.08
2022-08-23T16:56:33.938Z,31.96
2022-08-23T16:59:01.229Z,32.10
2022-08-23T17:01:28.711Z,32.34
2022-08-23T17:03:55.817Z,32.07
2022-08-23T17:06:22.370Z,32.47
2022-08-23T17:08:48.862Z,32.73
2022-08-23T17:11:19.484Z,32.18
2022-08-23T17:13:46.607Z,32.79
2022-08-23T17:16:13.169Z,32.75
2022-08-23T17:18:40.126Z,32.54
2022-08-23T17:21:07.202Z,33.22
2022-08-23T17:23:34.039Z,32.50
2022-08-23T17:26:04.081Z,32.77
2022-08-23T17:28:31.603Z,32.77
2022-08-23T17:30:58.945Z,32.54
2022-08-23T17:33:25.492Z,32.32
2022-08-23T17:35:52.112Z,32.40
2022-08-23T17:38:20.028Z,32.92
2022-08-23T17:40:46.433Z,33.09
2022-08-23T17:43:13.049Z,33.40
2022-08-23T17:45:43.500Z,33.73
2022-08-23T17:48:11.267Z,33.44
2022-08-23T17:50:39.312Z,33.97
2022-08-23T17:53:06.519Z,33.90
2022-08-23T17:55:34.616Z,33.80
2022-08-23T17:58:03.969Z,33.96
2022-08-23T18:00:35.454Z,34.52
2022-08-23T18:03:02.060Z,34.42
2022-08-23T18:05:30.108Z,34.66
2022-08-23T18:07:56.671Z,34.65
2022-08-23T18:10:25.299Z,35.46
2022-08-23T18:12:52.152Z,36.14
2022-08-23T18:15:18.850Z,35.98
2022-08-23T18:17:45.295Z,36.70
2022-08-23T18:20:12.926Z,37.06
2022-08-23T18:22:40.057Z,37.46
2022-08-23T18:25:08.510Z,37.69
2022-08-23T18:27:53.284Z,37.90
2022-08-23T18:30:21.484Z,38.07
2022-08-23T18:32:47.923Z,38.13
2022-08-23T18:35:14.480Z,38.57
2022-08-23T18:37:41.726Z,38.29
2022-08-23T18:40:10.064Z,38.23
2022-08-23T18:42:37.074Z,38.54
2022-08-23T18:45:04.551Z,38.61
2022-08-23T18:47:31.065Z,39.50
2022-08-23T18:49:57.532Z,39.38
2022-08-23T18:52:24.054Z,40.38
2022-08-23T18:54:50.484Z,40.43
2022-08-23T18:57:17.756Z,40.32
2022-08-23T18:59:44.422Z,40.88
2022-08-23T19:02:11.363Z,42.25
2022-08-23T19:04:37.909Z,42.89
2022-08-23T19:07:05.074Z,41.88
2022-08-23T19:09:31.499Z,42.76
2022-08-23T19:12:00.543Z,42.56
2022-08-23T19:14:28.423Z,42.58
2022-08-23T19:16:55.258Z,42.91
2022-08-23T19:19:23.118Z,43.89
2022-08-23T19:21:50.241Z,44.16
2022-08-23T19:24:17.402Z,44.51
2022-08-23T19:26:47.589Z,44.68
2022-08-23T19:29:15.944Z,45.04
2022-08-23T19:31:47.935Z,45.10
2022-08-23T19:34:16.255Z,45.37
2022-08-23T19:36:46.891Z,45.91
2022-08-23T19:39:16.338Z,45.75
2022-08-23T19:41:42.828Z,45.76
2022-08-23T19:44:10.257Z,45.77
2022-08-23T19:46:41.195Z,45.88
2022-08-23T19:49:09.985Z,46.55
2022-08-23T19:51:36.625Z,46.32
2022-08-23T19:54:04.774Z,46.09
2022-08-23T19:56:49.579Z,47.10
2022-08-23T19:59:20.134Z,47.73
2022-08-23T20:01:48.154Z,47.51
2022-08-23T20:04:14.751Z,48.20
2022-08-23T20:06:41.229Z,47.63
2022-08-23T20:09:08.627Z,48.30
2022-08-23T20:11:35.651Z,47.57
2022-08-23T20:14:04.008Z,47.90
2022-08-23T20:16:32.619Z,48.52
2022-08-23T20:19:02.476Z,49.29
2022-08-23T20:21:29.073Z,50.42
2022-08-23T20:24:03.351Z,50.41
2022-08-23T20:26:37.196Z,50.63
2022-08-23T20:29:05.057Z,51.78
2022-08-23T20:31:35.771Z,50.88
2022-08-23T20:34:04.479Z,51.08
2022-08-23T20:36:31.308Z,51.39
2022-08-23T20:38:59.974Z,50.90
2022-08-23T20:41:32.640Z,50.94
2022-08-23T20:44:00.039Z,51.33
2022-08-23T20:46:26.971Z,51.13
2022-08-23T20:48:54.118Z,52.21
2022-08-23T20:51:21.257Z,53.31
2022-08-23T20:53:47.998Z,52.53
2022-08-23T20:56:15.987Z,52.26
2022-08-23T20:58:43.175Z,52.54
2022-08-23T21:01:11.160Z,52.14
2022-08-23T21:03:38.608Z,52.36
2022-08-23T21:06:06.854Z,53.54
2022-08-23T21:08:33.523Z,53.36
2022-08-23T21:11:02.027Z,53.86
2022-08-23T21:13:28.642Z,54.14
2022-08-23T21:15:55.216Z,53.35
2022-08-23T21:18:21.838Z,54.57
2022-08-23T21:20:48.458Z,54.64
2022-08-23T21:23:14.889Z,55.06
2022-08-23T21:25:41.451Z,55.14
2022-08-23T21:28:08.281Z,54.98
2022-08-23T21:30:34.726Z,55.32
2022-08-23T21:33:03.447Z,55.98
2022-08-23T21:35:30.067Z,56.55
2022-08-23T21:37:56.475Z,57.00
2022-08-23T21:40:23.410Z,56.68
2022-08-23T21:42:49.937Z,56.98
2022-08-23T21:45:16.345Z,57.02
2022-08-23T21:47:43.094Z,57.91
2022-08-23T21:50:10.238Z,58.06
2022-08-23T21:52:36.635Z,58.71
2022-08-23T21:55:03.269Z,58.08
2022-08-23T21:57:29.746Z,58.20
2022-08-23T21:59:57.013Z,58.13
2022-08-23T22:02:23.525Z,58.83
2022-08-23T22:04:50.317Z,58.76
2022-08-23T22:07:16.755Z,59.00
2022-08-23T22:09:43.175Z,59.76
2022-08-23T22:12:09.766Z,59.93
2022-08-23T22:14:36.488Z,60.12
2022-08-23T22:17:03.527Z,60.38
2022-08-23T22:19:29.932Z,60.79
2022-08-23T22:21:56.661Z,60.45
2022-08-23T22:24:25.966Z,60.92
2022-08-23T22:26:53.321Z,60.67
2022-08-23T22:29:19.722Z,61.02
2022-08-23T22:31:47.774Z,60.84
2022-08-23T22:34:14.443Z,60.73
2022-08-23T22:36:41.934Z,60.71
2022-08-23T22:39:08.804Z,60.75
2022-08-23T22:41:35.303Z,60.64
2022-08-23T22:44:03.314Z,61.69
2022-08-23T22:46:31.711Z,61.88
2022-08-23T22:48:58.344Z,62.18
2022-08-23T22:51:29.206Z,62.00
2022-08-23T22:53:59.494Z,62.26
2022-08-23T22:56:31.236Z,61.44
2022-08-23T22:58:58.755Z,61.15
2022-08-23T23:01:31.344Z,60.30
2022-08-23T23:03:59.181Z,59.48
2022-08-23T23:06:28.084Z,59.00
2022-08-23T23:08:56.081Z,60.11
2022-08-23T23:11:23.900Z,59.35
2022-08-23T23:13:50.672Z,60.24
2022-08-23T23:16:22.785Z,60.75
2022-08-23T23:19:09.201Z,60.72
2022-08-23T23:21:40.026Z,61.07
2022-08-23T23:24:06.632Z,61.56
2022-08-23T23:26:33.263Z,60.80
2022-08-23T23:28:59.971Z,60.88
2022-08-23T23:31:26.730Z,60.72
2022-08-23T23:33:53.210Z,61.80
2022-08-23T23:36:20.788Z,61.55
2022-08-23T23:38:47.449Z,62.42
2022-08-23T23:41:14.123Z,63.43
2022-08-23T23:43:41.989Z,62.52
2022-08-23T23:46:11.196Z,63.23
2022-08-23T23:48:42.390Z,63.12
2022-08-23T23:51:10.792Z,63.36
2022-08-23T23:53:38.666Z,62.85
2022-08-23T23:56:09.995Z,62.57
2022-08-23T23:58:37.858Z,63.19
